createdAt,value
2023-11-12T00:01:52.981Z,99089.22
2023-11-12T00:04:19.827Z,99073.97
2023-11-12T00:06:45.783Z,99066.56
2023-11-12T00:09:11.974Z,99090.72
2023-11-12T00:11:41.361Z,99074.50
2023-11-12T00:14:07.296Z,99094.56
2023-11-12T00:16:33.504Z,99063.59
2023-11-12T00:18:59.424Z,99106.78
2023-11-12T00:21:25.279Z,99096.16
2023-11-12T00:23:54.443Z,99093.59
2023-11-12T00:26:21.633Z,99069.81
2023-11-12T00:28:47.519Z,99101.59
2023-11-12T00:31:13.421Z,99100.94
2023-11-12T00:33:41.817Z,99062.31
2023-11-12T00:36:08.870Z,99100.88
2023-11-12T00:38:35.688Z,99084.03
2023-11-12T00:41:01.561Z,99096.56
2023-11-12T00:43:27.765Z,99085.50
2023-11-12T00:45:58.622Z,99112.06
2023-11-12T00:48:24.493Z,99109.69
2023-11-12T00:50:50.311Z,99108.94
2023-11-12T00:53:16.206Z,99097.00
2023-11-12T00:55:42.151Z,99118.63
2023-11-12T00:58:08.070Z,99099.63
2023-11-12T01:00:34.131Z,99110.69
2023-11-12T01:03:00.056Z,99120.50
2023-11-12T01:05:25.999Z,99105.81
2023-11-12T01:07:51.835Z,99129.22
2023-11-12T01:10:17.702Z,99138.13
2023-11-12T01:12:43.555Z,99111.00
2023-11-12T01:15:09.501Z,99108.81
2023-11-12T01:17:35.638Z,99137.09
2023-11-12T01:20:01.779Z,99128.63
2023-11-12T01:22:28.002Z,99139.78
2023-11-12T01:24:53.889Z,99139.72
2023-11-12T01:27:19.718Z,99121.84
2023-11-12T01:29:45.562Z,99114.03
2023-11-12T01:32:11.354Z,99142.34
2023-11-12T01:34:37.181Z,99117.44
2023-11-12T01:37:03.015Z,99114.28
2023-11-12T01:39:28.926Z,99115.19
2023-11-12T01:41:54.745Z,99145.53
2023-11-12T01:44:20.779Z,99128.25
2023-11-12T01:46:46.776Z,99142.78
2023-11-12T01:49:13.339Z,99142.00
2023-11-12T01:51:39.273Z,99136.59
2023-11-12T01:54:05.353Z,99116.66
2023-11-12T01:56:31.536Z,99124.88
2023-11-12T01:58:58.245Z,99135.41
2023-11-12T02:01:24.136Z,99138.78
2023-11-12T02:03:52.549Z,99146.81
2023-11-12T02:06:18.793Z,99118.47
2023-11-12T02:08:45.481Z,99140.66
2023-11-12T02:11:14.223Z,99156.91
2023-11-12T02:13:43.808Z,99157.22
2023-11-12T02:16:10.665Z,99162.13
2023-11-12T02:18:36.583Z,99156.97
2023-11-12T02:21:03.567Z,99180.31
2023-11-12T02:23:30.178Z,99160.31
2023-11-12T02:25:57.928Z,99155.91
2023-11-12T02:28:23.888Z,99167.94
2023-11-12T02:30:55.871Z,99142.81
2023-11-12T02:33:27.793Z,99155.66
2023-11-12T02:35:55.972Z,99171.03
2023-11-12T02:38:23.579Z,99177.69
2023-11-12T02:40:50.019Z,99161.41
2023-11-12T02:43:16.764Z,99144.97
2023-11-12T02:45:42.740Z,99195.63
2023-11-12T02:48:08.772Z,99165.56
2023-11-12T02:50:36.017Z,99192.38
2023-11-12T02:53:07.641Z,99197.53
2023-11-12T02:55:34.297Z,99199.22
2023-11-12T02:58:00.395Z,99182.72
2023-11-12T03:00:27.947Z,99211.38
2023-11-12T03:02:55.414Z,99196.78
2023-11-12T03:05:21.376Z,99208.88
2023-11-12T03:07:47.233Z,99212.47
2023-11-12T03:10:13.889Z,99213.34
2023-11-12T03:12:39.774Z,99207.28
2023-11-12T03:15:07.308Z,99216.69
2023-11-12T03:17:34.631Z,99205.00
2023-11-12T03:20:04.554Z,99203.63
2023-11-12T03:22:34.855Z,99219.81
2023-11-12T03:25:01.586Z,99230.63
2023-11-12T03:27:28.155Z,99234.16
2023-11-12T03:29:53.954Z,99213.25
2023-11-12T03:32:21.878Z,99222.59
2023-11-12T03:34:51.291Z,99208.97
2023-11-12T03:37:21.160Z,99218.19
2023-11-12T03:39:48.270Z,99223.56
2023-11-12T03:42:16.317Z,99209.91
2023-11-12T03:44:47.238Z,99231.66
2023-11-12T03:47:13.361Z,99223.88
2023-11-12T03:49:42.565Z,99210.88
2023-11-12T03:52:08.957Z,99230.94
2023-11-12T03:54:36.324Z,99232.75
2023-11-12T03:57:02.152Z,99213.88
2023-11-12T03:59:27.955Z,99215.19
2023-11-12T04:01:53.767Z,99219.13
2023-11-12T04:04:19.865Z,99236.41
2023-11-12T04:06:45.874Z,99228.50
2023-11-12T04:09:12.345Z,99245.06
2023-11-12T04:11:40.789Z,99246.69
2023-11-12T04:14:07.697Z,99250.91
2023-11-12T04:16:35.160Z,99243.25
2023-11-12T04:19:03.370Z,99230.22
2023-11-12T04:21:32.224Z,99251.13
2023-11-12T04:23:58.585Z,99239.09
2023-11-12T04:26:25.199Z,99263.97
2023-11-12T04:28:51.284Z,99257.22
2023-11-12T04:31:17.397Z,99233.16
2023-11-12T04:33:43.262Z,99244.09
2023-11-12T04:36:09.197Z,99235.38
2023-11-12T04:38:35.033Z,99251.13
2023-11-12T04:41:00.894Z,99254.84
2023-11-12T04:43:26.740Z,99263.84
2023-11-12T04:45:52.608Z,99271.72
2023-11-12T04:48:18.603Z,99272.53
2023-11-12T04:50:45.926Z,99256.25
2023-11-12T04:53:12.338Z,99251.41
2023-11-12T04:55:38.834Z,99251.31
2023-11-12T04:58:07.840Z,99279.72
2023-11-12T05:00:34.104Z,99279.03
2023-11-12T05:03:03.961Z,99247.81
2023-11-12T05:05:30.523Z,99284.59
2023-11-12T05:07:56.351Z,99265.63
2023-11-12T05:10:22.237Z,99267.97
2023-11-12T05:13:08.637Z,99266.28
2023-11-12T05:15:35.448Z,99263.78
2023-11-12T05:18:06.265Z,99286.31
2023-11-12T05:20:33.958Z,99253.84
2023-11-12T05:23:01.778Z,99302.97
2023-11-12T05:25:28.439Z,99269.31
2023-11-12T05:27:55.184Z,99296.00
2023-11-12T05:30:21.288Z,99285.56
2023-11-12T05:32:51.319Z,99280.56
2023-11-12T05:35:17.699Z,99289.94
2023-11-12T05:37:43.540Z,99273.38
2023-11-12T05:40:09.933Z,99278.81
2023-11-12T05:42:35.823Z,99285.56
2023-11-12T05:45:02.222Z,99310.31
2023-11-12T05:47:28.227Z,99272.75
2023-11-12T05:49:54.087Z,99297.50
2023-11-12T05:52:19.879Z,99324.31
2023-11-12T05:54:45.742Z,99317.34
2023-11-12T05:57:11.562Z,99322.69
2023-11-12T05:59:37.364Z,99313.16
2023-11-12T06:02:03.389Z,99303.69
2023-11-12T06:04:29.320Z,99315.63
2023-11-12T06:06:55.160Z,99333.31
2023-11-12T06:09:20.981Z,99332.28
2023-11-12T06:11:48.215Z,99311.50
2023-11-12T06:14:14.321Z,99334.81
2023-11-12T06:16:40.210Z,99343.59
2023-11-12T06:19:06.103Z,99333.44
2023-11-12T06:21:32.108Z,99361.19
2023-11-12T06:23:57.987Z,99340.34
2023-11-12T06:26:23.780Z,99336.19
2023-11-12T06:28:49.835Z,99328.41
2023-11-12T06:31:18.898Z,99349.31
2023-11-12T06:33:44.894Z,99347.63
2023-11-12T06:36:14.544Z,99325.16
2023-11-12T06:38:41.788Z,99350.31
2023-11-12T06:41:09.107Z,99327.19
2023-11-12T06:43:34.908Z,99332.28
2023-11-12T06:46:00.692Z,99358.19
2023-11-12T06:48:26.558Z,99360.19
2023-11-12T06:50:52.409Z,99333.75
2023-11-12T06:53:18.261Z,99343.97
2023-11-12T06:55:44.117Z,99356.59
2023-11-12T06:58:10.389Z,99367.66
2023-11-12T07:00:36.394Z,99363.34
2023-11-12T07:03:02.500Z,99362.91
2023-11-12T07:05:30.844Z,99346.06
2023-11-12T07:07:57.725Z,99377.72
2023-11-12T07:10:23.739Z,99356.19
2023-11-12T07:12:50.073Z,99357.41
2023-11-12T07:15:16.013Z,99364.63
2023-11-12T07:17:43.857Z,99375.00
2023-11-12T07:20:11.730Z,99380.75
2023-11-12T07:22:37.578Z,99363.59
2023-11-12T07:25:03.993Z,99382.31
2023-11-12T07:27:31.648Z,99394.50
2023-11-12T07:29:57.757Z,99373.88
2023-11-12T07:32:23.772Z,99385.81
2023-11-12T07:34:49.880Z,99396.91
2023-11-12T07:37:15.839Z,99367.84
2023-11-12T07:39:41.852Z,99372.25
2023-11-12T07:42:07.821Z,99368.41
2023-11-12T07:44:35.706Z,99380.97
2023-11-12T07:47:01.606Z,99405.88
2023-11-12T07:49:27.500Z,99385.81
2023-11-12T07:51:53.316Z,99411.66
2023-11-12T07:54:19.130Z,99423.09
2023-11-12T07:56:45.069Z,99412.22
2023-11-12T07:59:11.304Z,99398.97
2023-11-12T08:01:37.154Z,99394.16
2023-11-12T08:04:03.150Z,99390.19
2023-11-12T08:06:29.045Z,99397.31
2023-11-12T08:08:54.964Z,99399.59
2023-11-12T08:11:20.987Z,99413.94
2023-11-12T08:13:47.427Z,99413.75
2023-11-12T08:16:13.757Z,99399.16
2023-11-12T08:18:43.731Z,99420.41
2023-11-12T08:21:10.384Z,99412.41
2023-11-12T08:23:36.792Z,99425.59
2023-11-12T08:26:03.381Z,99426.00
2023-11-12T08:28:29.901Z,99398.38
2023-11-12T08:30:55.789Z,99426.75
2023-11-12T08:33:22.323Z,99410.22
2023-11-12T08:35:48.151Z,99405.13
2023-11-12T08:38:14.090Z,99429.78
2023-11-12T08:40:42.284Z,99439.34
2023-11-12T08:43:13.539Z,99409.03
2023-11-12T08:45:39.929Z,99433.78
2023-11-12T08:48:05.911Z,99440.97
2023-11-12T08:50:32.826Z,99422.56
2023-11-12T08:53:01.364Z,99443.06
2023-11-12T08:55:27.450Z,99437.00
2023-11-12T08:57:53.446Z,99453.81
2023-11-12T09:00:19.769Z,99444.63
2023-11-12T09:02:46.602Z,99469.16
2023-11-12T09:05:13.409Z,99441.28
2023-11-12T09:07:39.285Z,99471.13
2023-11-12T09:10:05.835Z,99456.00
2023-11-12T09:12:32.759Z,99441.44
2023-11-12T09:14:58.637Z,99440.63
2023-11-12T09:17:24.511Z,99458.63
2023-11-12T09:19:50.393Z,99456.19
2023-11-12T09:22:16.296Z,99462.09
2023-11-12T09:24:55.237Z,99462.78
2023-11-12T09:27:30.494Z,99453.81
2023-11-12T09:29:56.288Z,99460.09
2023-11-12T09:32:22.152Z,99447.47
2023-11-12T09:34:47.972Z,99465.97
2023-11-12T09:37:13.797Z,99449.31
2023-11-12T09:39:39.838Z,99463.75
2023-11-12T09:42:07.648Z,99457.88
2023-11-12T09:44:37.969Z,99463.69
2023-11-12T09:47:21.351Z,99474.53
2023-11-12T09:49:50.451Z,99478.53
2023-11-12T09:52:16.501Z,99469.13
2023-11-12T09:54:43.675Z,99474.28
2023-11-12T09:57:10.056Z,99464.53
2023-11-12T09:59:36.918Z,99452.31
2023-11-12T10:02:06.014Z,99453.34
2023-11-12T10:04:31.923Z,99445.53
2023-11-12T10:06:58.346Z,99455.34
2023-11-12T10:09:30.567Z,99437.22
2023-11-12T10:12:04.068Z,99444.22
2023-11-12T10:14:30.059Z,99461.25
2023-11-12T10:17:07.084Z,99447.94
2023-11-12T10:19:34.805Z,99416.91
2023-11-12T10:22:02.328Z,99445.16
2023-11-12T10:24:29.438Z,99462.72
2023-11-12T10:27:05.536Z,99458.09
2023-11-12T10:29:31.907Z,99445.91
2023-11-12T10:31:58.101Z,99474.78
2023-11-12T10:34:27.410Z,99472.59
2023-11-12T10:37:04.049Z,99436.00
2023-11-12T10:39:41.084Z,99476.50
2023-11-12T10:42:16.022Z,99484.38
2023-11-12T10:44:43.146Z,99453.72
2023-11-12T10:47:10.872Z,99470.66
2023-11-12T10:49:40.046Z,99461.63
2023-11-12T10:52:06.904Z,99460.88
2023-11-12T10:54:33.492Z,99469.53
2023-11-12T10:57:00.384Z,99455.09
2023-11-12T10:59:29.068Z,99479.69
2023-11-12T11:01:58.674Z,99469.66
2023-11-12T11:04:27.053Z,99458.41
2023-11-12T11:06:53.210Z,99471.91
2023-11-12T11:09:21.345Z,99460.13
2023-11-12T11:11:49.679Z,99464.09
2023-11-12T11:14:28.287Z,99472.81
2023-11-12T11:16:54.913Z,99468.41
2023-11-12T11:19:43.749Z,99489.88
2023-11-12T11:22:25.434Z,99490.75
2023-11-12T11:24:55.375Z,99481.28
2023-11-12T11:27:28.714Z,99459.09
2023-11-12T11:30:15.864Z,99456.38
2023-11-12T11:32:59.757Z,99478.53
2023-11-12T11:35:27.038Z,99465.94
2023-11-12T11:38:12.984Z,99468.81
2023-11-12T11:40:40.686Z,99449.69
2023-11-12T11:43:26.194Z,99484.41
2023-11-12T11:46:04.313Z,99494.41
2023-11-12T11:48:30.324Z,99479.56
2023-11-12T11:50:59.518Z,99484.03
2023-11-12T11:53:26.677Z,99475.13
2023-11-12T11:56:02.164Z,99472.81
2023-11-12T11:58:35.972Z,99470.53
2023-11-12T12:01:01.877Z,99466.09
2023-11-12T12:03:29.732Z,99481.53
2023-11-12T12:05:55.900Z,99461.66
2023-11-12T12:08:21.751Z,99488.81
2023-11-12T12:10:48.704Z,99485.16
2023-11-12T12:13:15.624Z,99483.91
2023-11-12T12:15:46.099Z,99469.84
2023-11-12T12:18:24.100Z,99447.75
2023-11-12T12:20:52.473Z,99470.19
2023-11-12T12:23:20.723Z,99455.50
2023-11-12T12:25:55.652Z,99462.63
2023-11-12T12:28:26.790Z,99454.63
2023-11-12T12:30:53.104Z,99472.03
2023-11-12T12:33:18.985Z,99433.47
2023-11-12T12:35:44.818Z,99445.63
2023-11-12T12:38:11.227Z,99459.75
2023-11-12T12:40:37.664Z,99463.47
2023-11-12T12:43:07.010Z,99450.13
2023-11-12T12:45:34.990Z,99471.19
2023-11-12T12:48:10.948Z,99481.94
2023-11-12T12:50:36.930Z,99486.03
2023-11-12T12:53:15.416Z,99494.28
2023-11-12T12:55:43.753Z,99494.44
2023-11-12T12:58:10.659Z,99472.75
2023-11-12T13:00:39.138Z,99485.09
2023-11-12T13:03:13.975Z,99455.16
2023-11-12T13:05:39.841Z,99459.50
2023-11-12T13:08:08.561Z,99459.31
2023-11-12T13:10:34.548Z,99483.19
2023-11-12T13:13:00.544Z,99451.31
2023-11-12T13:15:26.920Z,99466.94
2023-11-12T13:17:52.898Z,99498.50
2023-11-12T13:20:21.780Z,99473.38
2023-11-12T13:22:48.701Z,99490.34
2023-11-12T13:25:15.986Z,99457.91
2023-11-12T13:27:46.258Z,99496.06
2023-11-12T13:30:13.124Z,99487.34
2023-11-12T13:32:40.441Z,99500.94
2023-11-12T13:35:07.635Z,99500.22
2023-11-12T13:37:35.154Z,99486.59
2023-11-12T13:40:05.729Z,99485.81
2023-11-12T13:42:36.351Z,99482.38
2023-11-12T13:45:05.719Z,99475.47
2023-11-12T13:47:32.107Z,99495.56
2023-11-12T13:49:57.925Z,99510.56
2023-11-12T13:52:23.742Z,99487.09
2023-11-12T13:54:50.539Z,99495.28
2023-11-12T13:57:16.535Z,99502.94
2023-11-12T13:59:42.477Z,99494.22
2023-11-12T14:02:11.404Z,99510.22
2023-11-12T14:04:37.420Z,99495.34
2023-11-12T14:07:04.859Z,99501.25
2023-11-12T14:09:33.448Z,99501.34
2023-11-12T14:12:06.003Z,99493.47
2023-11-12T14:14:32.383Z,99498.75
2023-11-12T14:16:58.386Z,99510.78
2023-11-12T14:19:27.757Z,99499.47
2023-11-12T14:21:56.672Z,99491.75
2023-11-12T14:24:26.585Z,99516.84
2023-11-12T14:26:52.492Z,99485.84
2023-11-12T14:29:19.497Z,99509.06
2023-11-12T14:31:46.597Z,99502.06
2023-11-12T14:34:13.248Z,99531.53
2023-11-12T14:36:40.819Z,99509.13
2023-11-12T14:39:11.002Z,99528.22
2023-11-12T14:41:41.139Z,99517.06
2023-11-12T14:44:07.771Z,99504.53
2023-11-12T14:46:36.424Z,99507.97
2023-11-12T14:49:05.788Z,99523.84
2023-11-12T14:51:33.830Z,99550.09
2023-11-12T14:54:05.584Z,99527.28
2023-11-12T14:56:32.652Z,99535.56
2023-11-12T14:58:58.578Z,99522.28
2023-11-12T15:01:24.500Z,99554.81
2023-11-12T15:03:50.350Z,99531.19
2023-11-12T15:06:16.220Z,99538.56
2023-11-12T15:08:42.045Z,99546.03
2023-11-12T15:11:08.921Z,99555.09
2023-11-12T15:13:34.730Z,99546.06
2023-11-12T15:16:00.608Z,99552.72
2023-11-12T15:18:27.699Z,99562.81
2023-11-12T15:20:53.545Z,99551.25
2023-11-12T15:23:19.327Z,99553.31
2023-11-12T15:25:45.134Z,99542.81
2023-11-12T15:28:11.448Z,99557.75
2023-11-12T15:30:37.315Z,99536.94
2023-11-12T15:33:06.819Z,99552.75
2023-11-12T15:35:33.153Z,99562.78
2023-11-12T15:37:59.018Z,99566.69
2023-11-12T15:40:24.864Z,99583.56
2023-11-12T15:42:52.384Z,99583.22
2023-11-12T15:45:18.877Z,99593.16
2023-11-12T15:47:46.622Z,99592.50
2023-11-12T15:50:13.963Z,99562.97
2023-11-12T15:52:40.745Z,99574.66
2023-11-12T15:55:08.888Z,99575.31
2023-11-12T15:57:37.346Z,99596.19
2023-11-12T16:00:08.270Z,99601.50
2023-11-12T16:02:38.617Z,99588.81
2023-11-12T16:05:05.202Z,99599.25
2023-11-12T16:07:31.343Z,99577.28
2023-11-12T16:09:58.170Z,99587.78
2023-11-12T16:12:25.373Z,99565.56
2023-11-12T16:14:51.622Z,99590.66
2023-11-12T16:17:17.471Z,99584.75
2023-11-12T16:19:43.261Z,99595.38
2023-11-12T16:22:09.323Z,99558.69
2023-11-12T16:24:35.174Z,99599.53
2023-11-12T16:27:01.056Z,99581.09
2023-11-12T16:29:26.910Z,99596.78
2023-11-12T16:32:09.462Z,99604.56
2023-11-12T16:34:36.317Z,99611.00
2023-11-12T16:37:02.704Z,99605.81
2023-11-12T16:39:32.026Z,99570.78
2023-11-12T16:41:58.029Z,99609.66
2023-11-12T16:44:24.892Z,99581.47
2023-11-12T16:46:51.972Z,99615.94
2023-11-12T16:49:17.826Z,99609.13
2023-11-12T16:51:43.723Z,99617.06
2023-11-12T16:54:09.564Z,99608.75
2023-11-12T16:56:35.942Z,99597.69
2023-11-12T16:59:01.942Z,99619.81
2023-11-12T17:01:27.863Z,99619.06
2023-11-12T17:03:53.894Z,99611.44
2023-11-12T17:06:19.766Z,99613.13
2023-11-12T17:08:45.539Z,99610.69
2023-11-12T17:11:11.459Z,99621.94
2023-11-12T17:13:37.307Z,99622.94
2023-11-12T17:16:03.423Z,99624.88
2023-11-12T17:18:29.398Z,99598.19
2023-11-12T17:20:55.261Z,99627.81
2023-11-12T17:23:21.134Z,99599.31
2023-11-12T17:25:48.828Z,99620.94
2023-11-12T17:28:14.648Z,99631.31
2023-11-12T17:30:40.532Z,99634.00
2023-11-12T17:33:07.429Z,99632.34
2023-11-12T17:35:34.003Z,99613.81
2023-11-12T17:37:59.871Z,99617.25
2023-11-12T17:40:27.724Z,99652.16
2023-11-12T17:42:53.528Z,99622.81
2023-11-12T17:45:19.514Z,99655.81
2023-11-12T17:47:45.380Z,99617.06
2023-11-12T17:50:11.280Z,99628.38
2023-11-12T17:52:37.142Z,99608.66
2023-11-12T17:55:03.298Z,99640.69
2023-11-12T17:57:31.099Z,99645.09
2023-11-12T17:59:56.973Z,99674.56
2023-11-12T18:02:23.579Z,99653.25
2023-11-12T18:04:49.548Z,99656.84
2023-11-12T18:07:15.586Z,99689.94
2023-11-12T18:09:41.480Z,99678.72
2023-11-12T18:12:07.579Z,99686.66
2023-11-12T18:14:33.424Z,99665.72
2023-11-12T18:16:59.648Z,99678.56
2023-11-12T18:21:51.752Z,99692.56
2023-11-12T18:24:17.591Z,99679.53
2023-11-12T18:26:51.429Z,99687.25
2023-11-12T18:29:18.161Z,99687.50
2023-11-12T18:31:44.221Z,99694.47
2023-11-12T18:34:10.747Z,99660.75
2023-11-12T18:36:36.818Z,99686.78
2023-11-12T18:39:02.923Z,99686.84
2023-11-12T18:41:29.700Z,99668.84
2023-11-12T18:43:55.589Z,99688.03
2023-11-12T18:46:22.185Z,99702.91
2023-11-12T18:48:49.610Z,99660.69
2023-11-12T18:51:17.099Z,99675.47
2023-11-12T18:53:44.707Z,99685.13
2023-11-12T18:56:10.791Z,99699.88
2023-11-12T18:58:36.725Z,99713.75
2023-11-12T19:01:02.656Z,99704.13
2023-11-12T19:03:29.679Z,99694.63
2023-11-12T19:05:55.547Z,99681.22
2023-11-12T19:08:21.427Z,99685.53
2023-11-12T19:10:49.002Z,99703.69
2023-11-12T19:13:14.916Z,99708.16
2023-11-12T19:15:40.796Z,99708.97
2023-11-12T19:18:06.694Z,99688.31
2023-11-12T19:20:36.959Z,99709.13
2023-11-12T19:23:03.445Z,99697.19
2023-11-12T19:25:29.456Z,99732.84
2023-11-12T19:27:55.409Z,99723.97
2023-11-12T19:30:23.625Z,99699.13
2023-11-12T19:32:50.292Z,99712.06
2023-11-12T19:35:17.111Z,99725.25
2023-11-12T19:37:44.591Z,99719.16
2023-11-12T19:40:16.693Z,99734.66
2023-11-12T19:42:42.749Z,99738.13
2023-11-12T19:45:12.077Z,99737.34
2023-11-12T19:47:37.922Z,99716.63
2023-11-12T19:50:06.464Z,99703.00
2023-11-12T19:52:33.540Z,99740.91
2023-11-12T19:54:59.425Z,99722.75
2023-11-12T19:57:26.938Z,99715.00
2023-11-12T19:59:54.142Z,99727.97
2023-11-12T20:02:19.943Z,99714.28
2023-11-12T20:04:45.773Z,99712.75
2023-11-12T20:07:11.924Z,99729.22
2023-11-12T20:09:38.929Z,99740.47
2023-11-12T20:12:06.261Z,99712.81
2023-11-12T20:14:32.166Z,99744.88
2023-11-12T20:17:01.145Z,99725.16
2023-11-12T20:19:27.933Z,99744.03
2023-11-12T20:21:54.335Z,99720.75
2023-11-12T20:24:20.459Z,99745.84
2023-11-12T20:26:51.719Z,99750.28
2023-11-12T20:29:21.206Z,99758.84
2023-11-12T20:31:51.772Z,99731.94
2023-11-12T20:34:17.854Z,99754.41
2023-11-12T20:36:47.044Z,99758.63
2023-11-12T20:39:16.135Z,99763.00
2023-11-12T20:41:46.318Z,99750.06
2023-11-12T20:44:13.511Z,99733.69
2023-11-12T20:46:45.276Z,99738.88
2023-11-12T20:49:16.315Z,99757.88
2023-11-12T20:51:51.701Z,99768.22
2023-11-12T20:54:17.594Z,99770.97
2023-11-12T20:56:43.710Z,99768.38
2023-11-12T20:59:10.319Z,99777.97
2023-11-12T21:01:36.969Z,99777.97
2023-11-12T21:04:03.419Z,99764.09
2023-11-12T21:06:30.235Z,99764.09
2023-11-12T21:08:56.256Z,99747.75
2023-11-12T21:11:22.773Z,99766.72
2023-11-12T21:13:51.068Z,99773.72
2023-11-12T21:16:20.546Z,99765.94
2023-11-12T21:18:47.722Z,99767.75
2023-11-12T21:21:16.061Z,99772.97
2023-11-12T21:23:41.867Z,99757.31
2023-11-12T21:26:13.224Z,99738.28
2023-11-12T21:28:39.081Z,99755.47
2023-11-12T21:31:06.112Z,99757.22
2023-11-12T21:33:32.315Z,99731.28
2023-11-12T21:35:59.454Z,99752.19
2023-11-12T21:38:25.430Z,99762.59
2023-11-12T21:40:51.323Z,99760.69
2023-11-12T21:43:17.203Z,99762.44
2023-11-12T21:45:45.063Z,99728.69
2023-11-12T21:48:12.386Z,99746.91
2023-11-12T21:50:38.421Z,99739.13
2023-11-12T21:53:04.417Z,99754.53
2023-11-12T21:55:30.249Z,99747.56
2023-11-12T21:57:56.608Z,99762.31
2023-11-12T22:00:26.689Z,99735.34
2023-11-12T22:02:56.484Z,99757.78
2023-11-12T22:05:25.020Z,99762.00
2023-11-12T22:07:51.217Z,99737.88
2023-11-12T22:10:17.201Z,99758.50
2023-11-12T22:12:44.069Z,99755.00
2023-11-12T22:15:13.624Z,99723.78
2023-11-12T22:17:40.697Z,99742.69
2023-11-12T22:20:06.992Z,99749.56
2023-11-12T22:22:33.141Z,99753.97
2023-11-12T22:25:08.695Z,99747.94
2023-11-12T22:27:43.469Z,99744.47
2023-11-12T22:30:11.536Z,99740.09
2023-11-12T22:32:37.875Z,99725.41
2023-11-12T22:35:06.595Z,99742.69
2023-11-12T22:37:32.453Z,99747.84
2023-11-12T22:39:58.470Z,99740.03
2023-11-12T22:42:24.722Z,99746.22
2023-11-12T22:44:50.541Z,99753.00
2023-11-12T22:47:16.410Z,99734.16
2023-11-12T22:49:42.234Z,99758.28
2023-11-12T22:52:08.036Z,99755.88
2023-11-12T22:54:34.850Z,99730.75
2023-11-12T22:57:00.680Z,99760.19
2023-11-12T22:59:26.633Z,99760.22
2023-11-12T23:01:52.518Z,99751.50
2023-11-12T23:04:18.629Z,99742.00
2023-11-12T23:06:44.979Z,99746.31
2023-11-12T23:09:11.672Z,99754.81
2023-11-12T23:11:37.464Z,99758.34
2023-11-12T23:14:04.564Z,99734.19
2023-11-12T23:16:30.442Z,99739.25
2023-11-12T23:18:56.364Z,99771.25
2023-11-12T23:21:22.206Z,99751.31
2023-11-12T23:23:48.094Z,99753.22
2023-11-12T23:26:13.945Z,99757.34
2023-11-12T23:28:39.780Z,99736.50
2023-11-12T23:31:05.664Z,99767.53
2023-11-12T23:33:31.595Z,99752.72
2023-11-12T23:35:57.570Z,99761.38
2023-11-12T23:38:23.385Z,99745.78
2023-11-12T23:40:49.250Z,99762.22
2023-11-12T23:43:16.199Z,99729.34
2023-11-12T23:45:42.426Z,99750.00
2023-11-12T23:48:08.598Z,99758.56
2023-11-12T23:50:35.103Z,99741.28
2023-11-12T23:53:00.933Z,99739.56
2023-11-12T23:55:26.852Z,99767.22
2023-11-12T23:57:52.903Z,99760.25
